MSC Vanessa — HOWD — position and weather

sailwx.info

Track history (hours):
 
Tides and Currents Weather Stations Pressure Air Temp Water Temp Dewpoint Dewpoint Depression Visibility Wind Speed Wind Dir Waves Ship Positions

MSC Vanessa

Last reported at 2015-Jul-02 17:21 UTC. Time now 2015-Jul-07 13:11 UTC.
Position N 27°17' W 015°15'.

Length 300 m; draft 9.3 m.

Type: Ship (hazmat cat B). MMSI: 356946000.

Date/timePositionNaut miles runAvg speedWind from/ knotsBaromVisibWave heightAir tempDewpointWater temp
2015-Jul-02 17:21N 27°17' W 015°15'1114.2
2015-Jul-02 16:33N 27°29' W 015°15'1413.8
2015-Jul-02 15:34N 27°42' W 015°15'1414.2
2015-Jul-02 14:33N 27°57' W 015°15'1312.7
2015-Jul-02 13:33N 28°07' W 015°24'2 1.5
2015-Jul-02 12:32N 28°08' W 015°25'0 0.0
2015-Jul-02 11:32N 28°08' W 015°25'0 0.0
2015-Jul-02 10:20N 28°08' W 015°25'0 0.0
2015-Jul-02 09:32N 28°08' W 015°25'0 0.0
2015-Jul-02 08:23N 28°08' W 015°25'0 0.0
2015-Jul-02 07:23N 28°08' W 015°25'0 0.0
2015-Jul-02 06:26N 28°08' W 015°25'0 0.0
2015-Jul-02 05:26N 28°08' W 015°25'0 0.0
2015-Jul-02 04:26N 28°08' W 015°25'0 0.0
2015-Jul-02 03:29N 28°08' W 015°25'0 0.0
2015-Jul-02 02:26N 28°08' W 015°25'0 0.0
2015-Jul-02 01:29N 28°08' W 015°25'0 0.0
2015-Jul-02 00:32N 28°08' W 015°25'0 0.0
2015-Jul-01 23:32N 28°08' W 015°25'0 0.0
2015-Jul-01 22:32N 28°08' W 015°25'0 0.0
2015-Jul-01 21:32N 28°08' W 015°25'0 0.0
2015-Jul-01 20:32N 28°08' W 015°25'0 0.0
2015-Jul-01 19:32N 28°08' W 015°25'0 0.0
2015-Jul-01 18:20N 28°08' W 015°25'0 0.0
2015-Jul-01 17:23N 28°08' W 015°25'0 0.0
2015-Jul-01 16:26N 28°08' W 015°25'0 0.0
2015-Jul-01 15:26N 28°08' W 015°25'0 0.0
2015-Jul-01 14:26N 28°08' W 015°25'0 0.0
2015-Jul-01 13:29N 28°08' W 015°25'0 0.0
2015-Jul-01 12:29N 28°08' W 015°25'0 0.0
2015-Jul-01 11:29N 28°08' W 015°25'0 0.0
2015-Jul-01 10:32N 28°08' W 015°25'0 0.0
2015-Jul-01 09:32N 28°08' W 015°25'0 0.0
2015-Jul-01 08:32N 28°08' W 015°25'0 0.0
2015-Jul-01 07:32N 28°08' W 015°25'0 0.1
2015-Jul-01 06:33N 28°08' W 015°25'7 6.9
2015-Jul-01 05:33N 28°09' W 015°17'1010.0
2015-Jul-01 04:33N 28°16' W 015°09'1817.7
2015-Jul-01 03:33N 28°29' W 014°55'1818.1
2015-Jul-01 02:33N 28°42' W 014°41'1818.0
2015-Jul-01 01:33N 28°56' W 014°27'1817.7
2015-Jul-01 00:33N 29°09' W 014°14'1817.6
2015-Jun-30 23:33N 29°22' W 014°00'5517.6
2015-Jun-30 20:25N 30°03' W 013°17'1618.6
2015-Jun-30 19:33N 30°14' W 013°04'1919.1
2015-Jun-30 18:33N 30°28' W 012°49'1918.8
2015-Jun-30 17:33N 30°42' W 012°34'2018.6
2015-Jun-30 16:29N 30°56' W 012°18'1818.5
2015-Jun-30 15:31N 31°09' W 012°04'1818.3
2015-Jun-30 14:33N 31°22' W 011°50'1918.6
2015-Jun-30 13:33N 31°35' W 011°35'2419.0
2015-Jun-30 12:18N 31°53' W 011°16'6120.1
2015-Jun-30 09:17N 32°37' W 010°26'1317.6
2015-Jun-30 08:33N 32°46' W 010°16'3215.7
2015-Jun-30 06:31N 33°09' W 009°48'1917.4
2015-Jun-30 05:26N 33°21' W 009°31'23717.0
2015-Jun-29 15:28N 35°57' W 005°54'1415.0
2015-Jun-29 14:31N 35°58' W 005°36'7 1.2
2015-Jun-29 09:04N 35°53' W 005°30'0 0.0
2015-Jun-29 08:08N 35°53' W 005°30'0 0.0
2015-Jun-29 07:11N 35°53' W 005°30'0 0.0
2015-Jun-29 05:25N 35°53' W 005°30'0 0.3
2015-Jun-29 04:33N 35°54' W 005°30'4 3.7
2015-Jun-29 03:34N 35°57' W 005°31'1313.3
2015-Jun-29 02:34N 36°02' W 005°15'8 8.1
2015-Jun-29 01:33N 36°03' W 005°05'1313.0
2015-Jun-29 00:33N 36°05' W 004°50'1413.9
2015-Jun-28 23:34N 36°08' W 004°33'1413.5
2015-Jun-28 22:31N 36°10' W 004°15'2813.3
2015-Jun-28 20:24N 36°14' W 003°41'1413.9
2015-Jun-28 19:22N 36°16' W 003°24'1114.0
2015-Jun-28 18:33N 36°19' W 003°10'1514.1
2015-Jun-28 17:31N 36°21' W 002°52'1414.4
2015-Jun-28 16:33N 36°23' W 002°35'1817.9
2015-Jun-28 15:33N 36°25' W 002°13'1918.8
2015-Jun-28 14:33N 36°36' W 001°54'1919.0
2015-Jun-28 13:33N 36°48' W 001°35'1919.0
2015-Jun-28 12:33N 37°01' W 001°18'1919.1
2015-Jun-28 11:33N 37°14' W 001°00'1919.2
2015-Jun-28 10:33N 37°28' W 000°42'1918.9
2015-Jun-28 09:33N 37°42' W 000°27'1919.2
2015-Jun-28 08:33N 37°58' W 000°14'1919.0
2015-Jun-28 07:33N 38°14' W 000°02'2019.7
2015-Jun-28 06:33N 38°30' E 000°13'1817.9
2015-Jun-28 05:33N 38°46' E 000°24'1919.0
2015-Jun-28 04:32N 39°02' E 000°10'1919.2
2015-Jun-28 03:33N 39°17' W 000°04'1514.7
2015-Jun-28 02:33N 39°26' W 000°19'0 0.4
2015-Jun-28 01:32N 39°26' W 000°20'0 0.0
2015-Jun-28 00:32N 39°26' W 000°20'0 0.0
2015-Jun-27 23:32N 39°26' W 000°20'0 0.0
2015-Jun-27 22:32N 39°26' W 000°20'0 0.0
2015-Jun-27 21:32N 39°26' W 000°20'0 0.0
2015-Jun-27 20:32N 39°26' W 000°20'0 0.0
2015-Jun-27 19:32N 39°26' W 000°20'0 0.0
2015-Jun-27 18:32N 39°26' W 000°20'0 0.0
2015-Jun-27 17:32N 39°26' W 000°20'0 0.0
2015-Jun-27 16:32N 39°26' W 000°20'0 0.0
2015-Jun-27 15:32N 39°26' W 000°20'0 0.0
2015-Jun-27 14:32N 39°26' W 000°20'0 0.0
2015-Jun-27 13:32N 39°26' W 000°20'0 0.0
2015-Jun-27 12:32N 39°26' W 000°20'0 0.0
2015-Jun-27 11:32N 39°26' W 000°20'0 0.0
2015-Jun-27 10:32N 39°26' W 000°20'0 0.0
2015-Jun-27 09:32N 39°26' W 000°20'0 0.3
2015-Jun-27 08:32N 39°26' W 000°20'0 0.0
2015-Jun-27 07:32N 39°26' W 000°20'0 0.0
2015-Jun-27 06:32N 39°26' W 000°20'0 0.0
2015-Jun-27 05:26N 39°26' W 000°20'0 0.0
2015-Jun-27 04:32N 39°26' W 000°20'0 0.0
2015-Jun-27 03:32N 39°26' W 000°20'0 0.0
2015-Jun-27 02:32N 39°26' W 000°20'0 0.0
2015-Jun-27 01:32N 39°26' W 000°20'0 0.0
2015-Jun-27 00:32N 39°26' W 000°20'0 0.0
2015-Jun-26 23:32N 39°26' W 000°20'0 0.0
2015-Jun-26 22:32N 39°26' W 000°20'0 0.0
2015-Jun-26 21:26N 39°26' W 000°20'0 0.0
2015-Jun-26 20:32N 39°26' W 000°20'0 0.0
2015-Jun-26 19:32N 39°26' W 000°20'0 0.0
2015-Jun-26 18:32N 39°26' W 000°20'0 0.0
2015-Jun-26 17:29N 39°26' W 000°20'0 0.0
2015-Jun-26 16:23N 39°26' W 000°20'0 0.0
2015-Jun-26 15:32N 39°26' W 000°20'0 0.0
2015-Jun-26 14:32N 39°26' W 000°20'0 0.0
2015-Jun-26 13:32N 39°26' W 000°20'0 0.0
2015-Jun-26 12:32N 39°26' W 000°20'0 0.0
2015-Jun-26 11:32N 39°26' W 000°20'1 0.5
2015-Jun-26 10:34N 39°26' W 000°19'8 7.8
2015-Jun-26 09:33N 39°24' W 000°09'1918.8
2015-Jun-26 08:32N 39°08' E 000°05'2121.5
2015-Jun-26 07:33N 38°52' E 000°23'1918.5
2015-Jun-26 06:33N 38°34' E 000°20'1818.3
2015-Jun-26 05:33N 38°18' E 000°08'1818.1
2015-Jun-26 04:33N 38°03' W 000°05'1818.4
2015-Jun-26 03:33N 37°48' W 000°17'1818.2
2015-Jun-26 02:33N 37°33' W 000°31'1818.3
2015-Jun-26 01:33N 37°20' W 000°47'2118.4
2015-Jun-26 00:26N 37°06' W 001°07'1618.4
2015-Jun-25 23:33N 36°55' W 001°21'1818.1
2015-Jun-25 22:33N 36°43' W 001°38'1818.1
2015-Jun-25 21:33N 36°31' W 001°55'1717.6
2015-Jun-25 20:34N 36°22' W 002°13'1817.7
2015-Jun-25 19:34N 36°19' W 002°35'1818.1
2015-Jun-25 18:33N 36°16' W 002°58'1918.6
2015-Jun-25 17:32N 36°14' W 003°21'2019.2
2015-Jun-25 16:29N 36°10' W 003°45'6219.3
2015-Jun-25 13:16N 36°01' W 005°01'1419.3
2015-Jun-25 12:34N 35°59' W 005°18'8521.3
2015-Jun-25 08:33N 36°04' W 007°03'1413.6
2015-Jun-25 07:32N 36°08' W 007°20'1313.2
2015-Jun-25 06:33N 36°12' W 007°35'1514.7
2015-Jun-25 05:33N 36°16' W 007°53'2016.2
2015-Jun-25 04:20N 36°21' W 008°16'1317.0
2015-Jun-25 03:33N 36°24' W 008°32'1717.0
2015-Jun-25 02:34N 36°29' W 008°52'1716.9
2015-Jun-25 01:33N 36°33' W 009°13'1616.4
2015-Jun-25 00:32N 36°44' W 009°29'1616.6
2015-Jun-24 23:33N 36°59' W 009°36'1717.2
2015-Jun-24 22:34N 37°14' W 009°25'1817.8
2015-Jun-24 21:33N 37°28' W 009°12'1817.7
2015-Jun-24 20:33N 37°43' W 008°59'1514.8
2015-Jun-24 19:33N 37°56' W 008°51'0 0.1
2015-Jun-24 18:32N 37°56' W 008°51'0 0.0
2015-Jun-24 17:32N 37°56' W 008°51'0 0.0
2015-Jun-24 16:32N 37°56' W 008°51'0 0.0
2015-Jun-24 15:32N 37°56' W 008°51'0 0.0
2015-Jun-24 14:32N 37°56' W 008°51'0 0.0
2015-Jun-24 13:32N 37°56' W 008°51'0 0.0
2015-Jun-24 12:32N 37°56' W 008°51'0 0.0
2015-Jun-24 11:32N 37°56' W 008°51'0 0.0
2015-Jun-24 10:32N 37°56' W 008°51'0 0.0
2015-Jun-24 09:32N 37°56' W 008°51'0 0.0
2015-Jun-24 08:32N 37°56' W 008°51'1 0.7
2015-Jun-24 07:33N 37°55' W 008°50'8 8.3
2015-Jun-24 06:33N 37°48' W 008°55'1313.1
2015-Jun-24 05:33N 37°36' W 009°02'1818.1
2015-Jun-24 04:33N 37°20' W 009°13'4314.3
2015-Jun-24 01:31N 36°40' W 008°51'1818.7
2015-Jun-24 00:33N 36°35' W 008°30'8917.8
2015-Jun-23 19:34N 36°07' W 006°45'817.5
2015-Jun-23 19:06N 36°04' W 006°36'78 3.3
2015-Jun-22 19:28N 36°08' W 004°59'3 3.0
2015-Jun-22 18:33N 36°09' W 005°02'2 2.5
2015-Jun-22 17:33N 36°09' W 005°05'  
Track history (hours):
 
Tides and Currents Weather Stations Pressure Air Temp Water Temp Dewpoint Dewpoint Depression Visibility Wind Speed Wind Dir Waves Ship Positions

MSC Vanessa

Last reported at 2015-Jul-02 17:21 UTC. Time now 2015-Jul-07 13:11 UTC.
Position N 27°17' W 015°15'.

Length 300 m; draft 9.3 m.

Type: Ship (hazmat cat B). MMSI: 356946000.

Date/timePositionNaut miles runAvg speedWind from/ knotsBaromVisibWave heightAir tempDewpointWater temp
2015-Jul-02 17:21N 27°17' W 015°15'1114.2
2015-Jul-02 16:33N 27°29' W 015°15'1413.8
2015-Jul-02 15:34N 27°42' W 015°15'1414.2
2015-Jul-02 14:33N 27°57' W 015°15'1312.7
2015-Jul-02 13:33N 28°07' W 015°24'2 1.5
2015-Jul-02 12:32N 28°08' W 015°25'0 0.0
2015-Jul-02 11:32N 28°08' W 015°25'0 0.0
2015-Jul-02 10:20N 28°08' W 015°25'0 0.0
2015-Jul-02 09:32N 28°08' W 015°25'0 0.0
2015-Jul-02 08:23N 28°08' W 015°25'0 0.0
2015-Jul-02 07:23N 28°08' W 015°25'0 0.0
2015-Jul-02 06:26N 28°08' W 015°25'0 0.0
2015-Jul-02 05:26N 28°08' W 015°25'0 0.0
2015-Jul-02 04:26N 28°08' W 015°25'0 0.0
2015-Jul-02 03:29N 28°08' W 015°25'0 0.0
2015-Jul-02 02:26N 28°08' W 015°25'0 0.0
2015-Jul-02 01:29N 28°08' W 015°25'0 0.0
2015-Jul-02 00:32N 28°08' W 015°25'0 0.0
2015-Jul-01 23:32N 28°08' W 015°25'0 0.0
2015-Jul-01 22:32N 28°08' W 015°25'0 0.0
2015-Jul-01 21:32N 28°08' W 015°25'0 0.0
2015-Jul-01 20:32N 28°08' W 015°25'0 0.0
2015-Jul-01 19:32N 28°08' W 015°25'0 0.0
2015-Jul-01 18:20N 28°08' W 015°25'0 0.0
2015-Jul-01 17:23N 28°08' W 015°25'0 0.0
2015-Jul-01 16:26N 28°08' W 015°25'0 0.0
2015-Jul-01 15:26N 28°08' W 015°25'0 0.0
2015-Jul-01 14:26N 28°08' W 015°25'0 0.0
2015-Jul-01 13:29N 28°08' W 015°25'0 0.0
2015-Jul-01 12:29N 28°08' W 015°25'0 0.0
2015-Jul-01 11:29N 28°08' W 015°25'0 0.0
2015-Jul-01 10:32N 28°08' W 015°25'0 0.0
2015-Jul-01 09:32N 28°08' W 015°25'0 0.0
2015-Jul-01 08:32N 28°08' W 015°25'0 0.0
2015-Jul-01 07:32N 28°08' W 015°25'0 0.1
2015-Jul-01 06:33N 28°08' W 015°25'7 6.9
2015-Jul-01 05:33N 28°09' W 015°17'1010.0
2015-Jul-01 04:33N 28°16' W 015°09'1817.7
2015-Jul-01 03:33N 28°29' W 014°55'1818.1
2015-Jul-01 02:33N 28°42' W 014°41'1818.0
2015-Jul-01 01:33N 28°56' W 014°27'1817.7
2015-Jul-01 00:33N 29°09' W 014°14'1817.6
2015-Jun-30 23:33N 29°22' W 014°00'5517.6
2015-Jun-30 20:25N 30°03' W 013°17'1618.6
2015-Jun-30 19:33N 30°14' W 013°04'1919.1
2015-Jun-30 18:33N 30°28' W 012°49'1918.8
2015-Jun-30 17:33N 30°42' W 012°34'2018.6
2015-Jun-30 16:29N 30°56' W 012°18'1818.5
2015-Jun-30 15:31N 31°09' W 012°04'1818.3
2015-Jun-30 14:33N 31°22' W 011°50'1918.6
2015-Jun-30 13:33N 31°35' W 011°35'2419.0
2015-Jun-30 12:18N 31°53' W 011°16'6120.1
2015-Jun-30 09:17N 32°37' W 010°26'1317.6
2015-Jun-30 08:33N 32°46' W 010°16'3215.7
2015-Jun-30 06:31N 33°09' W 009°48'1917.4
2015-Jun-30 05:26N 33°21' W 009°31'23717.0
2015-Jun-29 15:28N 35°57' W 005°54'1415.0
2015-Jun-29 14:31N 35°58' W 005°36'7 1.2
2015-Jun-29 09:04N 35°53' W 005°30'0 0.0
2015-Jun-29 08:08N 35°53' W 005°30'0 0.0
2015-Jun-29 07:11N 35°53' W 005°30'0 0.0
2015-Jun-29 05:25N 35°53' W 005°30'0 0.3
2015-Jun-29 04:33N 35°54' W 005°30'4 3.7
2015-Jun-29 03:34N 35°57' W 005°31'1313.3
2015-Jun-29 02:34N 36°02' W 005°15'8 8.1
2015-Jun-29 01:33N 36°03' W 005°05'1313.0
2015-Jun-29 00:33N 36°05' W 004°50'1413.9
2015-Jun-28 23:34N 36°08' W 004°33'1413.5
2015-Jun-28 22:31N 36°10' W 004°15'2813.3
2015-Jun-28 20:24N 36°14' W 003°41'1413.9
2015-Jun-28 19:22N 36°16' W 003°24'1114.0
2015-Jun-28 18:33N 36°19' W 003°10'1514.1
2015-Jun-28 17:31N 36°21' W 002°52'1414.4
2015-Jun-28 16:33N 36°23' W 002°35'1817.9
2015-Jun-28 15:33N 36°25' W 002°13'1918.8
2015-Jun-28 14:33N 36°36' W 001°54'1919.0
2015-Jun-28 13:33N 36°48' W 001°35'1919.0
2015-Jun-28 12:33N 37°01' W 001°18'1919.1
2015-Jun-28 11:33N 37°14' W 001°00'1919.2
2015-Jun-28 10:33N 37°28' W 000°42'1918.9
2015-Jun-28 09:33N 37°42' W 000°27'1919.2
2015-Jun-28 08:33N 37°58' W 000°14'1919.0
2015-Jun-28 07:33N 38°14' W 000°02'2019.7
2015-Jun-28 06:33N 38°30' E 000°13'1817.9
2015-Jun-28 05:33N 38°46' E 000°24'1919.0
2015-Jun-28 04:32N 39°02' E 000°10'1919.2
2015-Jun-28 03:33N 39°17' W 000°04'1514.7
2015-Jun-28 02:33N 39°26' W 000°19'0 0.4
2015-Jun-28 01:32N 39°26' W 000°20'0 0.0
2015-Jun-28 00:32N 39°26' W 000°20'0 0.0
2015-Jun-27 23:32N 39°26' W 000°20'0 0.0
2015-Jun-27 22:32N 39°26' W 000°20'0 0.0
2015-Jun-27 21:32N 39°26' W 000°20'0 0.0
2015-Jun-27 20:32N 39°26' W 000°20'0 0.0
2015-Jun-27 19:32N 39°26' W 000°20'0 0.0
2015-Jun-27 18:32N 39°26' W 000°20'0 0.0
2015-Jun-27 17:32N 39°26' W 000°20'0 0.0
2015-Jun-27 16:32N 39°26' W 000°20'0 0.0
2015-Jun-27 15:32N 39°26' W 000°20'0 0.0
2015-Jun-27 14:32N 39°26' W 000°20'0 0.0
2015-Jun-27 13:32N 39°26' W 000°20'0 0.0
2015-Jun-27 12:32N 39°26' W 000°20'0 0.0
2015-Jun-27 11:32N 39°26' W 000°20'0 0.0
2015-Jun-27 10:32N 39°26' W 000°20'0 0.0
2015-Jun-27 09:32N 39°26' W 000°20'0 0.3
2015-Jun-27 08:32N 39°26' W 000°20'0 0.0
2015-Jun-27 07:32N 39°26' W 000°20'0 0.0
2015-Jun-27 06:32N 39°26' W 000°20'0 0.0
2015-Jun-27 05:26N 39°26' W 000°20'0 0.0
2015-Jun-27 04:32N 39°26' W 000°20'0 0.0
2015-Jun-27 03:32N 39°26' W 000°20'0 0.0
2015-Jun-27 02:32N 39°26' W 000°20'0 0.0
2015-Jun-27 01:32N 39°26' W 000°20'0 0.0
2015-Jun-27 00:32N 39°26' W 000°20'0 0.0
2015-Jun-26 23:32N 39°26' W 000°20'0 0.0
2015-Jun-26 22:32N 39°26' W 000°20'0 0.0
2015-Jun-26 21:26N 39°26' W 000°20'0 0.0
2015-Jun-26 20:32N 39°26' W 000°20'0 0.0
2015-Jun-26 19:32N 39°26' W 000°20'0 0.0
2015-Jun-26 18:32N 39°26' W 000°20'0 0.0
2015-Jun-26 17:29N 39°26' W 000°20'0 0.0
2015-Jun-26 16:23N 39°26' W 000°20'0 0.0
2015-Jun-26 15:32N 39°26' W 000°20'0 0.0
2015-Jun-26 14:32N 39°26' W 000°20'0 0.0
2015-Jun-26 13:32N 39°26' W 000°20'0 0.0
2015-Jun-26 12:32N 39°26' W 000°20'0 0.0
2015-Jun-26 11:32N 39°26' W 000°20'1 0.5
2015-Jun-26 10:34N 39°26' W 000°19'8 7.8
2015-Jun-26 09:33N 39°24' W 000°09'1918.8
2015-Jun-26 08:32N 39°08' E 000°05'2121.5
2015-Jun-26 07:33N 38°52' E 000°23'1918.5
2015-Jun-26 06:33N 38°34' E 000°20'1818.3
2015-Jun-26 05:33N 38°18' E 000°08'1818.1
2015-Jun-26 04:33N 38°03' W 000°05'1818.4
2015-Jun-26 03:33N 37°48' W 000°17'1818.2
2015-Jun-26 02:33N 37°33' W 000°31'1818.3
2015-Jun-26 01:33N 37°20' W 000°47'2118.4
2015-Jun-26 00:26N 37°06' W 001°07'1618.4
2015-Jun-25 23:33N 36°55' W 001°21'1818.1
2015-Jun-25 22:33N 36°43' W 001°38'1818.1
2015-Jun-25 21:33N 36°31' W 001°55'1717.6
2015-Jun-25 20:34N 36°22' W 002°13'1817.7
2015-Jun-25 19:34N 36°19' W 002°35'1818.1
2015-Jun-25 18:33N 36°16' W 002°58'1918.6
2015-Jun-25 17:32N 36°14' W 003°21'2019.2
2015-Jun-25 16:29N 36°10' W 003°45'6219.3
2015-Jun-25 13:16N 36°01' W 005°01'1419.3
2015-Jun-25 12:34N 35°59' W 005°18'8521.3
2015-Jun-25 08:33N 36°04' W 007°03'1413.6
2015-Jun-25 07:32N 36°08' W 007°20'1313.2
2015-Jun-25 06:33N 36°12' W 007°35'1514.7
2015-Jun-25 05:33N 36°16' W 007°53'2016.2
2015-Jun-25 04:20N 36°21' W 008°16'1317.0
2015-Jun-25 03:33N 36°24' W 008°32'1717.0
2015-Jun-25 02:34N 36°29' W 008°52'1716.9
2015-Jun-25 01:33N 36°33' W 009°13'1616.4
2015-Jun-25 00:32N 36°44' W 009°29'1616.6
2015-Jun-24 23:33N 36°59' W 009°36'1717.2
2015-Jun-24 22:34N 37°14' W 009°25'1817.8
2015-Jun-24 21:33N 37°28' W 009°12'1817.7
2015-Jun-24 20:33N 37°43' W 008°59'1514.8
2015-Jun-24 19:33N 37°56' W 008°51'0 0.1
2015-Jun-24 18:32N 37°56' W 008°51'0 0.0
2015-Jun-24 17:32N 37°56' W 008°51'0 0.0
2015-Jun-24 16:32N 37°56' W 008°51'0 0.0
2015-Jun-24 15:32N 37°56' W 008°51'0 0.0
2015-Jun-24 14:32N 37°56' W 008°51'0 0.0
2015-Jun-24 13:32N 37°56' W 008°51'0 0.0
2015-Jun-24 12:32N 37°56' W 008°51'0 0.0
2015-Jun-24 11:32N 37°56' W 008°51'0 0.0
2015-Jun-24 10:32N 37°56' W 008°51'0 0.0
2015-Jun-24 09:32N 37°56' W 008°51'0 0.0
2015-Jun-24 08:32N 37°56' W 008°51'1 0.7
2015-Jun-24 07:33N 37°55' W 008°50'8 8.3
2015-Jun-24 06:33N 37°48' W 008°55'1313.1
2015-Jun-24 05:33N 37°36' W 009°02'1818.1
2015-Jun-24 04:33N 37°20' W 009°13'4314.3
2015-Jun-24 01:31N 36°40' W 008°51'1818.7
2015-Jun-24 00:33N 36°35' W 008°30'8917.8
2015-Jun-23 19:34N 36°07' W 006°45'817.5
2015-Jun-23 19:06N 36°04' W 006°36'78 3.3
2015-Jun-22 19:28N 36°08' W 004°59'3 3.0
2015-Jun-22 18:33N 36°09' W 005°02'2 2.5
2015-Jun-22 17:33N 36°09' W 005°05'  

Dump ship's entire track history